Terminal Aerodrome Forecast
Issued by NWS Upton, NY

Home | Current Version | Previous Version | Text Only | Print | Product List | Glossary On
Versions: 1 2 3 4 5 6 7 8 9 10 11 12 13 14 15 16 17 18 19 20 21 22 23 24 25 26 27 28 29 30 31 32 33 34 35 36
386
FTUS41 KOKX 290536
TAFJFK
TAF
KJFK 290536Z 2906/3012 05016G22KT P6SM -DZ SCT009 OVC012
     FM291200 06019G25KT P6SM -DZ OVC020
     FM300600 05020G26KT P6SM RA OVC015=

USA.gov is the U.S. government's official web portal to all federal, state and local government web resources and services.